McGregor, TX

6:26 PM CDT on July 23, 2017 (GMT -0500)
McGregor Executive

Weather History for KPWG - February, 2013

Change the Weather History Date:

Monday, February 25, 2013

  Actual Average Record
Temperature  
Mean Temperature 51 °F -  
Max Temperature 60 °F 59 °F 84 °F (2008)
Min Temperature 42 °F 40 °F 21 °F (2003)
Degree Days  
Heating Degree Days 14    
Growing Degree Days 1 (Base 50)    
Moisture  
Dew Point 35 °F    
Average Humidity 53    
Maximum Humidity 82    
Minimum Humidity 29    
Precipitation  
Precipitation 0.00 in - - ()
Sea Level Pressure  
Sea Level Pressure 29.64 in    
Wind  
Wind Speed 17 mph (West)    
Max Wind Speed 36 mph    
Max Gust Speed 45 mph    
Visibility 10 miles    
Events      
Averages and records for this station are not official NWS values.
T = Trace of Precipitation, MM = Missing Value Source: NWS Daily Summary

Daily Weather History Graph

Daily Weather History Graph

Search for Another Location

Airport or City:

Trip Planner

Search our weather history database for the weather conditions in past years. The results will help you decide how hot, cold, wet, or windy it might be!

Date:

Astronomy

Feb. 25, 2013 Rise Set
Actual Time 7:00 AM CST 6:24 PM CST
Civil Twilight 6:35 AM CST 6:49 PM CST
Nautical Twilight 6:07 AM CST 7:17 PM CST
Astronomical Twilight 5:39 AM CST 7:45 PM CST
Moon 6:34 PM CST (2/25) 6:33 AM CST (2/25)
Length of Visible Light 12h 13m
Length of Day
11h 24m
Full, 100% of the Moon is Illuminated
Feb 25
Full
Feb 25
Full
Mar 4
Last Quarter
Mar 11
New
Mar 19
First Quarter

Hourly Weather History & Observations

Time (CST) Temp. Windchill Dew Point Humidity Pressure Visibility Wind Dir Wind Speed Gust Speed Precip Events Conditions
12:15 AM 60.8 °F - 46.4 °F 59% 29.60 in 10.0 mi SE 18.4 mph 24.2 mph N/A   Overcast
12:35 AM 60.8 °F - 46.4 °F 59% 29.59 in 10.0 mi SE 18.4 mph 23.0 mph N/A   Overcast
12:55 AM 60.8 °F - 46.4 °F 59% 29.59 in 10.0 mi SSE 15.0 mph - N/A   Overcast
1:15 AM 60.8 °F - 46.4 °F 59% 29.59 in 10.0 mi SSE 11.5 mph 19.6 mph N/A   Overcast
1:35 AM 60.8 °F - 46.4 °F 59% 29.59 in 10.0 mi SSE 12.7 mph 19.6 mph N/A   Overcast
1:55 AM 60.8 °F - 46.4 °F 59% 29.59 in 10.0 mi SSE 13.8 mph - N/A   Overcast
2:15 AM 60.8 °F - 46.4 °F 59% 29.58 in 10.0 mi SSE 11.5 mph - N/A   Overcast
2:35 AM 60.8 °F - 46.4 °F 59% 29.59 in 10.0 mi SSE 10.4 mph - N/A   Overcast
2:55 AM 59.0 °F - 46.4 °F 63% 29.59 in 10.0 mi South 8.1 mph - N/A   Overcast
3:15 AM 59.0 °F - 48.2 °F 67% 29.61 in 10.0 mi Calm Calm - N/A   Overcast
3:35 AM 59.0 °F - 48.2 °F 67% 29.62 in 10.0 mi SW 5.8 mph - N/A   Overcast
3:55 AM 57.2 °F - 48.2 °F 72% 29.61 in 10.0 mi SSE 5.8 mph - N/A   Overcast
4:15 AM 57.2 °F - 48.2 °F 72% 29.60 in 10.0 mi SE 6.9 mph - N/A   Overcast
4:35 AM 57.2 °F - 48.2 °F 72% 29.58 in 10.0 mi ESE 8.1 mph - N/A   Overcast
4:55 AM 57.2 °F - 48.2 °F 72% 29.56 in 10.0 mi ESE 6.9 mph - N/A   Overcast
5:15 AM 57.2 °F - 48.2 °F 72% 29.57 in 10.0 mi SE 9.2 mph - N/A   Overcast
5:35 AM 57.2 °F - 50.0 °F 77% 29.58 in 10.0 mi South 6.9 mph - N/A   Overcast
5:55 AM 57.2 °F - 48.2 °F 72% 29.58 in 10.0 mi South 10.4 mph - N/A   Overcast
6:15 AM 55.4 °F - 50.0 °F 82% 29.57 in 10.0 mi SSW 5.8 mph - N/A   Overcast
6:35 AM 57.2 °F - 50.0 °F 77% 29.59 in 10.0 mi WSW 15.0 mph - N/A   Mostly Cloudy
6:55 AM 55.4 °F - 46.4 °F 72% 29.59 in 10.0 mi West 12.7 mph 19.6 mph N/A   Mostly Cloudy
7:15 AM 53.6 °F - 42.8 °F 67% 29.60 in 10.0 mi West 10.4 mph 19.6 mph N/A   Mostly Cloudy
7:35 AM 53.6 °F - 42.8 °F 67% 29.61 in 10.0 mi WSW 10.4 mph - N/A   Scattered Clouds
7:55 AM 53.6 °F - 41.0 °F 62% 29.62 in 10.0 mi West 12.7 mph - N/A   Scattered Clouds
8:15 AM 53.6 °F - 41.0 °F 62% 29.63 in 10.0 mi West 15.0 mph 19.6 mph N/A   Mostly Cloudy
8:35 AM 53.6 °F - 39.2 °F 58% 29.63 in 10.0 mi West 16.1 mph - N/A   Mostly Cloudy
8:55 AM 53.6 °F - 37.4 °F 54% 29.64 in 10.0 mi West 19.6 mph 24.2 mph N/A   Mostly Cloudy
9:15 AM 53.6 °F - 37.4 °F 54% 29.64 in 10.0 mi West 15.0 mph 24.2 mph N/A   Mostly Cloudy
9:35 AM 55.4 °F - 35.6 °F 47% 29.64 in 10.0 mi West 19.6 mph 31.1 mph N/A   Mostly Cloudy
9:55 AM 55.4 °F - 35.6 °F 47% 29.63 in 10.0 mi West 21.9 mph 33.4 mph N/A   Partly Cloudy
10:15 AM 57.2 °F - 32.0 °F 38% 29.64 in 10.0 mi West 24.2 mph 36.8 mph N/A   Clear
10:35 AM 57.2 °F - 32.0 °F 38% 29.64 in 10.0 mi West 24.2 mph 33.4 mph N/A   Clear
10:55 AM 57.2 °F - 32.0 °F 38% 29.64 in 10.0 mi West 20.7 mph 32.2 mph N/A   Clear
11:15 AM 59.0 °F - 32.0 °F 36% 29.64 in 10.0 mi West 20.7 mph 29.9 mph N/A   Clear
11:35 AM 60.8 °F - 30.2 °F 31% 29.63 in 10.0 mi West 24.2 mph 31.1 mph N/A   Clear
11:55 AM 60.8 °F - 28.4 °F 29% 29.62 in 10.0 mi West 26.5 mph 35.7 mph N/A   Clear
12:15 PM - - - N/A% 29.60 in 10.0 mi WSW 29.9 mph 40.3 mph N/A   Clear
12:35 PM 60.8 °F - 30.2 °F 31% 29.60 in 10.0 mi West 23.0 mph 34.5 mph N/A   Clear
12:55 PM 60.8 °F - 30.2 °F 31% 29.59 in 10.0 mi West 23.0 mph 34.5 mph N/A   Clear
1:15 PM - - - N/A% 29.58 in 10.0 mi West 25.3 mph 36.8 mph N/A   Partly Cloudy
1:35 PM - - - N/A% 29.58 in 8.0 mi West 26.5 mph 42.6 mph N/A   Mostly Cloudy
1:55 PM 57.2 °F - 30.2 °F 36% 29.60 in 3.0 mi West 25.3 mph 40.3 mph N/A   Mostly Cloudy
2:15 PM - - - N/A% 29.60 in 2.5 mi West 29.9 mph 42.6 mph N/A   Scattered Clouds
2:35 PM - - - N/A% 29.59 in 7.0 mi West 28.8 mph 43.7 mph N/A   Mostly Cloudy
2:55 PM 53.6 °F - 26.6 °F 35% 29.60 in 8.0 mi West 35.7 mph 42.6 mph N/A   Mostly Cloudy
3:15 PM 51.8 °F - 24.8 °F 35% 29.59 in 10.0 mi West 26.5 mph 36.8 mph N/A   Overcast
3:35 PM 51.8 °F - 26.6 °F 38% 29.60 in 9.0 mi West 25.3 mph 36.8 mph N/A   Overcast
3:55 PM 50.0 °F - 26.6 °F 40% 29.61 in 10.0 mi West 25.3 mph 40.3 mph N/A   Overcast
4:15 PM 50.0 °F - 26.6 °F 40% 29.61 in 10.0 mi West 20.7 mph 38.0 mph N/A   Overcast
4:35 PM 50.0 °F - 26.6 °F 40% 29.61 in 5.0 mi West 32.2 mph 44.9 mph N/A   Overcast
4:55 PM 48.2 °F - 26.6 °F 43% 29.61 in 10.0 mi West 31.1 mph 39.1 mph N/A   Overcast
5:15 PM 48.2 °F - 26.6 °F 43% 29.62 in 4.0 mi WNW 21.9 mph 41.4 mph N/A   Mostly Cloudy
5:35 PM 46.4 °F 38.1 °F 26.6 °F 46% 29.63 in 7.0 mi WNW 24.2 mph 40.3 mph N/A   Scattered Clouds
5:55 PM 44.6 °F 35.7 °F 26.6 °F 49% 29.65 in 10.0 mi West 24.2 mph 29.9 mph N/A   Scattered Clouds
6:15 PM 44.6 °F 36.1 °F 26.6 °F 49% 29.66 in 10.0 mi WNW 21.9 mph 32.2 mph N/A   Overcast
6:35 PM 44.6 °F 34.7 °F 26.6 °F 49% 29.67 in 8.0 mi West 29.9 mph 40.3 mph N/A   Overcast
6:55 PM 44.6 °F 35.3 °F 26.6 °F 49% 29.68 in 10.0 mi West 26.5 mph 38.0 mph N/A   Overcast
7:15 PM 44.6 °F 35.5 °F 26.6 °F 49% 29.70 in 10.0 mi West 25.3 mph 33.4 mph N/A   Overcast
7:35 PM 42.8 °F 32.9 °F 26.6 °F 53% 29.70 in 10.0 mi WNW 26.5 mph 32.2 mph N/A   Overcast
7:55 PM 42.8 °F 33.5 °F 26.6 °F 53% 29.71 in 10.0 mi WNW 23.0 mph 36.8 mph N/A   Overcast
8:15 PM 42.8 °F 33.5 °F 26.6 °F 53% 29.72 in 10.0 mi WNW 23.0 mph 36.8 mph N/A   Overcast
8:35 PM 42.8 °F 33.3 °F 26.6 °F 53% 29.73 in 10.0 mi WNW 24.2 mph 35.7 mph N/A   Overcast
8:55 PM 42.8 °F 33.8 °F 26.6 °F 53% 29.73 in 10.0 mi WNW 21.9 mph 33.4 mph N/A   Overcast
9:15 PM 42.8 °F 34.5 °F 26.6 °F 53% 29.75 in 10.0 mi WNW 18.4 mph 32.2 mph N/A   Overcast
9:35 PM 42.8 °F 33.8 °F 26.6 °F 53% 29.76 in 10.0 mi WNW 21.9 mph 35.7 mph N/A   Overcast
9:55 PM 42.8 °F 31.9 °F 26.6 °F 53% 29.76 in 10.0 mi WNW 32.2 mph 43.7 mph N/A   Overcast
10:15 PM 44.6 °F 35.5 °F 28.4 °F 53% 29.77 in 10.0 mi WNW 25.3 mph 33.4 mph N/A   Overcast
10:35 PM 44.6 °F 36.6 °F 28.4 °F 53% 29.78 in 10.0 mi WNW 19.6 mph 38.0 mph N/A   Overcast
10:55 PM 44.6 °F 35.9 °F 26.6 °F 49% 29.78 in 10.0 mi WNW 23.0 mph 31.1 mph N/A   Overcast
11:15 PM 44.6 °F 36.1 °F 26.6 °F 49% 29.78 in 10.0 mi WNW 21.9 mph 32.2 mph N/A   Overcast
11:35 PM 44.6 °F 35.9 °F 26.6 °F 49% 29.78 in 10.0 mi WNW 23.0 mph 36.8 mph N/A   Overcast
11:55 PM 44.6 °F 35.7 °F 28.4 °F 53% 29.78 in 10.0 mi WNW 24.2 mph 34.5 mph N/A   Overcast